Time;durP1;ratioP1;P1;durP2;ratioP2;P2;SDS_P1;SDS_P2;PMS_P1;PMS_P2;Temp;Humidity;BMP_temperature;BMP_pressure;BME280_temperature;BME280_humidity;BME280_pressure;Samples;Min_cycle;Max_cycle;Signal;HPM_P1;HPM_P2
2021/07/15 00:04:37;;;;;;;2.10;1.10;;;18.90;99.90;;;;;;10350538;28;20212;-79
2021/07/15 00:09:39;;;;;;;2.50;0.87;;;18.90;99.90;;;;;;10374963;28;20256;-78
2021/07/15 00:14:42;;;;;;;1.40;0.70;;;19.00;99.90;;;;;;10409214;28;20229;-77
2021/07/15 00:19:45;;;;;;;0.80;0.80;;;19.00;99.90;;;;;;10378931;28;20256;-78
2021/07/15 00:24:47;;;;;;;1.93;0.87;;;19.00;99.90;;;;;;10376384;28;20199;-77
2021/07/15 00:29:49;;;;;;;0.97;0.80;;;18.90;99.90;;;;;;10376300;28;20210;-78
2021/07/15 00:34:55;;;;;;;0.80;0.80;;;18.70;99.90;;;;;;10367705;28;20529;-79
2021/07/15 00:39:57;;;;;;;1.60;0.80;;;18.50;99.90;;;;;;10376352;28;20218;-79
2021/07/15 00:44:59;;;;;;;1.00;0.80;;;18.30;99.90;;;;;;10376865;28;20194;-77
2021/07/15 00:50:05;;;;;;;0.60;0.60;;;18.10;99.90;;;;;;10368752;28;20242;-77
2021/07/15 00:55:10;;;;;;;0.70;0.70;;;18.00;99.90;;;;;;10393708;28;20281;-78
2021/07/15 01:00:14;;;;;;;1.10;1.00;;;17.90;99.90;;;;;;10394414;28;20229;-77
2021/07/15 01:05:20;;;;;;;0.80;0.80;;;17.80;99.90;;;;;;10403743;28;20271;-78
2021/07/15 01:10:26;;;;;;;1.90;0.70;;;17.90;99.90;;;;;;10397461;28;20520;-76
2021/07/15 01:15:33;;;;;;;0.70;0.70;;;17.90;99.90;;;;;;10373380;28;20650;-79
2021/07/15 01:20:58;;;;;;;2.83;0.70;;;17.90;99.90;;;;;;10393347;28;20292;-79
2021/07/15 01:26:11;;;;;;;0.90;0.70;;;17.90;99.90;;;;;;10346846;28;20213;-79
2021/07/15 01:31:17;;;;;;;0.80;0.70;;;18.00;99.90;;;;;;10388804;28;20238;-79
2021/07/15 01:36:22;;;;;;;0.70;0.70;;;18.00;99.90;;;;;;10396358;28;20198;-78
2021/07/15 01:41:27;;;;;;;0.70;0.70;;;18.00;99.90;;;;;;10331710;28;20245;-77
2021/07/15 01:46:33;;;;;;;0.70;0.70;;;18.00;99.90;;;;;;10372124;28;20207;-78
2021/07/15 01:51:36;;;;;;;3.80;0.87;;;18.00;99.90;;;;;;10375339;28;20558;-77
2021/07/15 01:56:40;;;;;;;0.80;0.80;;;18.00;99.90;;;;;;10375174;28;20277;-77
2021/07/15 02:01:46;;;;;;;1.10;0.80;;;18.00;99.90;;;;;;10375571;28;20749;-77
2021/07/15 02:06:52;;;;;;;0.93;0.70;;;18.00;99.90;;;;;;10374805;28;20281;-78
2021/07/15 02:11:56;;;;;;;0.93;0.80;;;18.00;99.90;;;;;;10344972;28;20237;-78
2021/07/15 02:17:01;;;;;;;2.13;0.80;;;18.00;99.90;;;;;;10333185;28;20200;-79
2021/07/15 02:22:04;;;;;;;2.10;0.70;;;18.00;99.90;;;;;;10325410;28;20223;-78
2021/07/15 02:27:07;;;;;;;0.60;0.60;;;17.90;99.90;;;;;;10332779;28;20377;-78
2021/07/15 02:32:14;;;;;;;0.60;0.60;;;17.90;99.90;;;;;;10326089;28;20219;-76
2021/07/15 02:37:18;;;;;;;0.60;0.60;;;17.90;99.90;;;;;;10326725;28;20560;-77
2021/07/15 02:42:20;;;;;;;0.90;0.60;;;18.00;99.90;;;;;;10372178;28;20252;-77
2021/07/15 02:47:24;;;;;;;0.70;0.70;;;18.00;99.90;;;;;;10413271;28;20198;-77
2021/07/15 02:52:26;;;;;;;1.00;0.70;;;18.00;99.90;;;;;;10395863;28;20226;-78
2021/07/15 02:57:33;;;;;;;0.70;0.70;;;18.00;99.90;;;;;;10394987;28;20204;-79
2021/07/15 03:02:46;;;;;;;2.20;0.70;;;18.10;99.90;;;;;;10412533;28;20229;-77
2021/07/15 03:07:52;;;;;;;4.13;0.80;;;18.10;99.90;;;;;;10412524;28;20201;-78
2021/07/15 03:12:56;;;;;;;0.70;0.70;;;18.10;99.90;;;;;;10367191;28;20257;-79
2021/07/15 03:18:01;;;;;;;3.90;0.83;;;18.20;99.90;;;;;;10371087;28;20194;-79
2021/07/15 03:23:07;;;;;;;0.70;0.70;;;18.20;99.90;;;;;;10363613;28;20219;-79
2021/07/15 03:28:14;;;;;;;1.27;0.90;;;18.20;99.90;;;;;;10373937;28;20198;-77
2021/07/15 03:33:21;;;;;;;1.77;0.70;;;18.20;99.90;;;;;;10373361;28;20519;-77
2021/07/15 03:38:24;;;;;;;1.00;0.90;;;18.20;99.90;;;;;;10366145;28;20201;-79
2021/07/15 03:43:26;;;;;;;0.80;0.80;;;18.20;99.90;;;;;;10332972;28;20241;-77
2021/07/15 03:48:30;;;;;;;0.90;0.90;;;18.20;99.90;;;;;;10309525;28;20226;-77
2021/07/15 03:53:34;;;;;;;0.80;0.80;;;18.20;99.90;;;;;;10330477;28;20203;-78
2021/07/15 03:58:41;;;;;;;1.00;1.00;;;18.20;99.90;;;;;;10329327;28;20207;-78
2021/07/15 04:03:46;;;;;;;0.80;0.80;;;18.30;99.90;;;;;;10322323;28;20210;-78
2021/07/15 04:08:49;;;;;;;1.33;0.80;;;18.30;99.90;;;;;;10323687;28;20632;-77
2021/07/15 04:13:52;;;;;;;1.10;1.10;;;18.30;99.90;;;;;;10394552;28;20210;-79
2021/07/15 04:18:58;;;;;;;0.90;0.80;;;18.30;99.90;;;;;;10391838;28;20216;-77
2021/07/15 04:24:01;;;;;;;1.00;0.90;;;18.30;99.90;;;;;;10393828;28;20198;-77
2021/07/15 04:29:04;;;;;;;1.10;1.10;;;18.40;99.90;;;;;;10375966;28;20716;-78
2021/07/15 04:34:09;;;;;;;0.90;0.90;;;18.50;99.90;;;;;;10392866;28;20281;-76
2021/07/15 04:39:13;;;;;;;1.83;1.00;;;18.50;99.90;;;;;;10392119;28;20585;-77
2021/07/15 04:44:16;;;;;;;1.20;1.10;;;18.50;99.90;;;;;;10406630;28;20216;-79
2021/07/15 04:49:20;;;;;;;4.10;1.10;;;18.60;99.90;;;;;;10412653;28;20214;-80
2021/07/15 04:54:24;;;;;;;0.80;0.80;;;18.60;99.90;;;;;;10419288;28;20206;-80
2021/07/15 04:59:28;;;;;;;1.70;1.00;;;18.60;99.90;;;;;;10403721;28;20236;-79
2021/07/15 05:04:31;;;;;;;1.63;0.90;;;18.70;99.90;;;;;;10389430;28;20224;-80
2021/07/15 05:09:33;;;;;;;0.80;0.80;;;18.70;99.90;;;;;;10405074;28;20214;-79
2021/07/15 05:14:41;;;;;;;1.67;1.40;;;18.70;99.90;;;;;;10422698;28;20190;-79
2021/07/15 05:19:44;;;;;;;0.90;0.90;;;18.70;99.90;;;;;;10421904;28;20249;-80
2021/07/15 05:24:46;;;;;;;1.47;0.90;;;18.80;99.90;;;;;;10419998;28;20240;-80
2021/07/15 05:29:48;;;;;;;3.50;1.00;;;18.80;99.90;;;;;;10437629;28;20676;-80
2021/07/15 05:34:52;;;;;;;1.00;0.93;;;18.80;99.90;;;;;;10418453;28;20236;-78
2021/07/15 05:39:54;;;;;;;1.77;1.03;;;18.80;99.90;;;;;;10424859;28;20218;-81
2021/07/15 05:44:56;;;;;;;1.00;1.00;;;18.80;99.90;;;;;;10369358;28;20199;-80
2021/07/15 05:49:59;;;;;;;0.80;0.80;;;18.80;99.90;;;;;;10379061;28;20561;-80
2021/07/15 05:55:02;;;;;;;1.43;0.70;;;18.90;99.90;;;;;;10374129;28;20218;-81
2021/07/15 06:00:07;;;;;;;1.70;1.60;;;19.00;99.90;;;;;;10382301;28;20231;-80
2021/07/15 06:05:11;;;;;;;1.10;1.00;;;19.10;99.90;;;;;;10374221;28;20191;-80
2021/07/15 06:10:13;;;;;;;1.57;0.97;;;19.20;99.90;;;;;;10386126;28;20304;-80
2021/07/15 06:15:16;;;;;;;0.90;0.90;;;19.30;99.90;;;;;;10403576;28;20194;-80
2021/07/15 06:20:23;;;;;;;1.97;0.70;;;19.40;99.90;;;;;;10383587;28;20272;-80
2021/07/15 06:25:25;;;;;;;2.77;1.10;;;19.50;99.90;;;;;;10401848;28;20202;-79
2021/07/15 06:30:28;;;;;;;1.50;0.90;;;19.50;99.90;;;;;;10418686;28;20212;-80
2021/07/15 06:35:32;;;;;;;2.30;0.90;;;19.50;99.90;;;;;;10419219;28;20229;-80
2021/07/15 06:40:34;;;;;;;1.20;0.90;;;19.60;99.90;;;;;;10411937;28;20218;-80
2021/07/15 06:45:36;;;;;;;2.23;1.13;;;19.70;99.90;;;;;;10379580;28;20257;-80
2021/07/15 06:50:40;;;;;;;1.17;1.07;;;19.80;99.90;;;;;;10378267;28;20301;-80
2021/07/15 06:55:43;;;;;;;4.13;1.10;;;19.90;99.90;;;;;;10383774;28;20210;-80
2021/07/15 07:00:45;;;;;;;1.60;1.30;;;19.90;99.90;;;;;;10380584;28;20572;-82
2021/07/15 07:05:50;;;;;;;3.30;1.47;;;19.90;99.90;;;;;;10362885;28;20268;-80
2021/07/15 07:10:52;;;;;;;2.03;0.90;;;19.80;99.90;;;;;;10362024;28;20308;-80
2021/07/15 07:15:54;;;;;;;0.80;0.80;;;19.80;99.90;;;;;;10328698;28;20226;-80
2021/07/15 07:21:00;;;;;;;1.40;0.93;;;19.80;99.90;;;;;;10339987;28;20306;-80
2021/07/15 07:26:02;;;;;;;2.00;0.90;;;19.90;99.90;;;;;;10417075;28;20194;-80
2021/07/15 07:31:04;;;;;;;1.80;0.87;;;19.90;99.90;;;;;;10423149;28;20220;-80
2021/07/15 07:36:08;;;;;;;1.03;0.93;;;19.90;99.90;;;;;;10401486;28;20662;-79
2021/07/15 07:41:10;;;;;;;1.47;1.00;;;19.90;99.90;;;;;;10404035;28;20234;-80
2021/07/15 07:46:12;;;;;;;1.53;0.90;;;19.90;99.90;;;;;;10395869;28;20202;-80
2021/07/15 07:51:16;;;;;;;1.07;0.97;;;20.00;99.90;;;;;;10415162;28;20565;-80
2021/07/15 07:56:18;;;;;;;2.63;1.10;;;20.20;99.90;;;;;;10415076;28;20650;-80
2021/07/15 08:01:20;;;;;;;1.00;1.00;;;20.40;99.90;;;;;;10415659;28;20228;-80
2021/07/15 08:06:23;;;;;;;1.77;0.90;;;20.80;99.90;;;;;;10396752;28;20294;-80
2021/07/15 08:11:26;;;;;;;0.80;0.80;;;21.00;99.90;;;;;;10379805;28;20229;-80
2021/07/15 08:16:29;;;;;;;0.90;0.90;;;21.20;99.90;;;;;;10342845;28;20238;-80
2021/07/15 08:21:32;;;;;;;2.10;1.00;;;21.50;99.90;;;;;;10377455;28;20222;-80
2021/07/15 08:26:34;;;;;;;1.00;1.00;;;21.60;99.90;;;;;;10378637;28;20213;-80
2021/07/15 08:31:36;;;;;;;1.33;1.20;;;21.70;99.90;;;;;;10384824;28;20206;-80
2021/07/15 08:36:40;;;;;;;1.67;1.10;;;21.90;99.90;;;;;;10366453;28;20306;-79
2021/07/15 08:41:43;;;;;;;1.20;1.07;;;21.90;99.90;;;;;;10367600;28;20230;-80
2021/07/15 08:46:48;;;;;;;1.00;1.00;;;21.80;99.90;;;;;;10369003;28;20202;-80
2021/07/15 08:51:52;;;;;;;2.30;1.17;;;21.50;99.90;;;;;;10384054;28;20264;-80
2021/07/15 08:56:54;;;;;;;1.20;1.10;;;21.40;99.90;;;;;;10374191;28;20796;-80
2021/07/15 09:01:57;;;;;;;5.13;1.33;;;21.30;99.90;;;;;;10382942;28;20218;-80
2021/07/15 09:07:00;;;;;;;1.53;1.10;;;21.10;99.90;;;;;;10375258;28;20205;-80
2021/07/15 09:12:02;;;;;;;1.00;1.00;;;21.10;99.90;;;;;;10382909;28;20246;-80
2021/07/15 09:17:05;;;;;;;1.30;1.10;;;21.20;99.90;;;;;;10377007;28;20195;-80
2021/07/15 09:22:11;;;;;;;1.70;1.10;;;21.30;99.90;;;;;;10386488;28;20317;-80
2021/07/15 09:27:16;;;;;;;2.97;1.00;;;21.30;99.90;;;;;;10371443;28;20295;-80
2021/07/15 09:32:18;;;;;;;0.90;0.90;;;21.30;99.90;;;;;;10363440;28;20210;-80
2021/07/15 09:37:22;;;;;;;1.20;1.10;;;21.20;99.90;;;;;;10399205;28;20199;-80
2021/07/15 09:42:25;;;;;;;7.53;1.63;;;21.00;99.90;;;;;;10378105;28;20238;-80
2021/07/15 09:47:36;;;;;;;2.23;1.57;;;20.90;99.90;;;;;;10368640;28;20607;-79
2021/07/15 09:52:39;;;;;;;3.03;1.80;;;20.50;99.90;;;;;;10379104;28;20305;-79
2021/07/15 09:58:14;;;;;;;1.50;1.40;;;20.20;99.90;;;;;;10361478;28;20198;-79
2021/07/15 10:03:17;;;;;;;2.27;1.50;;;20.30;99.90;;;;;;10288196;28;20254;-80
2021/07/15 10:08:28;;;;;;;0.93;0.80;;;20.40;99.90;;;;;;10382183;28;20195;-80
2021/07/15 10:13:33;;;;;;;1.80;1.70;;;20.30;99.90;;;;;;10412096;28;20193;-80
2021/07/15 10:18:38;;;;;;;1.33;1.30;;;20.30;99.90;;;;;;10403484;28;20205;-79
2021/07/15 10:23:43;;;;;;;2.50;1.40;;;20.50;99.90;;;;;;10404193;28;20288;-80
2021/07/15 10:28:48;;;;;;;1.73;1.50;;;20.90;99.90;;;;;;10398226;28;20598;-80
2021/07/15 10:33:50;;;;;;;3.67;1.17;;;20.90;99.90;;;;;;10380236;28;20576;-79
2021/07/15 10:38:56;;;;;;;1.17;1.17;;;20.80;99.90;;;;;;10344310;28;20591;-79
2021/07/15 10:43:59;;;;;;;1.60;1.50;;;20.80;99.90;;;;;;10379887;28;20222;-80
2021/07/15 10:49:01;;;;;;;2.20;1.80;;;20.90;99.90;;;;;;10371645;28;20289;-80
2021/07/15 10:54:06;;;;;;;1.80;1.70;;;20.90;99.90;;;;;;10372048;28;20270;-80
2021/07/15 10:59:23;;;;;;;1.80;1.70;;;20.90;99.90;;;;;;10373020;28;20617;-80
2021/07/15 11:04:39;;;;;;;1.63;1.50;;;21.20;99.90;;;;;;10382492;28;20705;-80
2021/07/15 11:09:42;;;;;;;1.33;1.23;;;21.60;99.90;;;;;;10378024;28;20224;-80
2021/07/15 11:14:46;;;;;;;1.27;1.20;;;21.90;99.90;;;;;;10390574;28;20218;-80
2021/07/15 11:20:00;;;;;;;3.20;1.40;;;22.20;99.90;;;;;;10374397;28;20260;-80
2021/07/15 11:25:06;;;;;;;2.00;1.23;;;22.50;99.90;;;;;;10377477;28;20218;-80
2021/07/15 11:30:11;;;;;;;1.73;1.30;;;22.60;99.90;;;;;;10378277;28;20654;-80
2021/07/15 11:35:25;;;;;;;1.77;1.30;;;22.60;99.90;;;;;;10356102;28;20567;-79
2021/07/15 11:40:46;;;;;;;3.17;2.97;;;22.70;99.90;;;;;;10356727;28;20268;-80
2021/07/15 11:46:03;;;;;;;1.73;1.60;;;22.70;99.90;;;;;;10359935;28;20605;-80
2021/07/15 11:51:40;;;;;;;1.80;1.70;;;22.80;99.90;;;;;;10360978;28;20222;-80
2021/07/15 11:56:45;;;;;;;3.83;3.53;;;22.90;99.90;;;;;;10380565;28;20210;-80
2021/07/15 12:02:08;;;;;;;1.10;1.10;;;23.00;99.90;;;;;;10392120;23;20242;-81
2021/07/15 12:07:10;;;;;;;1.40;1.30;;;23.00;99.90;;;;;;10360416;28;20210;-81
2021/07/15 12:12:15;;;;;;;2.57;1.10;;;22.90;99.90;;;;;;10361260;28;20219;-81
2021/07/15 12:17:23;;;;;;;1.10;1.10;;;22.70;99.90;;;;;;10338681;28;20200;-80
2021/07/15 12:22:28;;;;;;;1.20;1.10;;;22.40;99.90;;;;;;10321812;28;20266;-81
2021/07/15 12:27:41;;;;;;;1.30;1.20;;;22.20;99.90;;;;;;10319818;28;20215;-80
2021/07/15 12:32:58;;;;;;;1.20;1.10;;;22.30;99.90;;;;;;10347125;28;20234;-81
2021/07/15 12:38:15;;;;;;;0.90;0.90;;;22.60;99.90;;;;;;10324610;28;20294;-82
2021/07/15 12:43:24;;;;;;;0.70;0.70;;;22.80;99.90;;;;;;10340864;28;20237;-81
2021/07/15 12:48:28;;;;;;;1.00;1.00;;;22.80;99.90;;;;;;10333321;28;20270;-81
2021/07/15 12:53:38;;;;;;;1.10;1.10;;;22.80;99.90;;;;;;10316984;28;20219;-81
2021/07/15 12:58:42;;;;;;;1.10;1.10;;;23.00;99.90;;;;;;10332631;28;20307;-81
2021/07/15 13:03:44;;;;;;;1.30;1.23;;;23.30;99.90;;;;;;10334697;28;20229;-81
2021/07/15 13:08:53;;;;;;;1.43;1.10;;;23.50;99.90;;;;;;10334505;28;20211;-81
2021/07/15 13:14:15;;;;;;;1.20;1.20;;;23.70;99.90;;;;;;10354670;28;20542;-82
2021/07/15 13:19:19;;;;;;;1.43;1.33;;;23.80;99.90;;;;;;10311632;28;20226;-81
2021/07/15 13:24:29;;;;;;;1.40;1.30;;;23.80;99.90;;;;;;10345428;28;20219;-81
2021/07/15 13:29:35;;;;;;;1.50;1.40;;;23.70;99.90;;;;;;10312837;28;20223;-81
2021/07/15 13:34:39;;;;;;;1.43;1.43;;;23.50;99.90;;;;;;10313417;28;20204;-82
2021/07/15 13:39:44;;;;;;;1.80;1.70;;;23.20;99.90;;;;;;10329305;28;20219;-83
2021/07/15 13:44:53;;;;;;;1.23;1.23;;;23.10;99.90;;;;;;10331877;28;20226;-82
2021/07/15 13:49:58;;;;;;;1.20;1.10;;;23.00;99.90;;;;;;10328188;28;20742;-82
2021/07/15 13:55:06;;;;;;;1.17;1.10;;;23.00;99.90;;;;;;10329617;28;20206;-81
2021/07/15 14:00:12;;;;;;;1.43;1.27;;;23.00;99.90;;;;;;10345579;28;20233;-82
2021/07/15 14:05:15;;;;;;;1.60;1.50;;;23.10;99.90;;;;;;10330130;28;20225;-82
2021/07/15 14:10:17;;;;;;;1.10;1.10;;;23.20;99.90;;;;;;10324868;28;20314;-81
2021/07/15 14:15:23;;;;;;;1.20;1.20;;;23.40;99.90;;;;;;10308797;28;20206;-82
2021/07/15 14:20:25;;;;;;;1.20;1.20;;;23.50;99.90;;;;;;10340303;28;20270;-82
2021/07/15 14:25:28;;;;;;;1.60;1.50;;;23.50;99.90;;;;;;10338178;28;20758;-82
2021/07/15 14:30:33;;;;;;;1.23;1.20;;;23.50;99.90;;;;;;10320843;28;20382;-82
2021/07/15 14:35:36;;;;;;;1.67;1.57;;;23.50;99.90;;;;;;10321310;28;20615;-82
2021/07/15 15:10:05;;;;;;;1.63;1.53;;;23.60;99.90;;;;;;10373461;28;20652;-82
2021/07/15 15:15:10;;;;;;;1.57;1.47;;;23.50;99.90;;;;;;10357127;28;20245;-81
2021/07/15 15:20:16;;;;;;;1.87;1.77;;;23.40;99.90;;;;;;10341986;28;20230;-83
2021/07/15 15:25:20;;;;;;;2.17;2.07;;;23.20;99.90;;;;;;10346325;28;20241;-82
2021/07/15 15:30:22;;;;;;;1.90;1.80;;;23.00;99.90;;;;;;10358706;28;20222;-83
2021/07/15 15:35:24;;;;;;;1.80;1.70;;;22.80;99.90;;;;;;10342205;28;20198;-83
2021/07/15 15:46:23;;;;;;;2.00;1.90;;;22.70;99.90;;;;;;10499476;22;20272;-84
2021/07/15 15:51:26;;;;;;;2.30;2.20;;;22.80;99.90;;;;;;10366619;28;20217;-83
2021/07/15 15:56:31;;;;;;;2.53;2.37;;;22.80;99.90;;;;;;10386666;28;20233;-83
2021/07/15 16:14:25;;;;;;;2.80;2.70;;;22.60;99.90;;;;;;3062282;23;20377;-84
2021/07/15 17:07:34;;;;;;;2.20;2.10;;;22.40;99.90;;;;;;10404736;23;20376;-84
2021/07/15 17:12:36;;;;;;;2.37;2.27;;;22.30;99.90;;;;;;10363615;28;20595;-83
2021/07/15 17:17:39;;;;;;;2.40;2.20;;;22.20;99.90;;;;;;10384772;28;20258;-83
2021/07/15 17:22:42;;;;;;;4.90;1.87;;;22.10;99.90;;;;;;10384148;28;20283;-85
2021/07/15 17:27:45;;;;;;;2.80;2.70;;;22.00;99.90;;;;;;10382491;28;20202;-83
2021/07/15 17:32:47;;;;;;;2.87;2.60;;;21.90;99.90;;;;;;10382313;28;20226;-84
2021/07/15 17:37:50;;;;;;;4.13;2.50;;;21.90;99.90;;;;;;10350039;28;20334;-82
2021/07/15 17:42:52;;;;;;;1.53;1.43;;;21.70;99.90;;;;;;10376669;28;20265;-83
2021/07/15 17:47:56;;;;;;;2.60;2.00;;;21.50;99.90;;;;;;10376021;28;20748;-82
2021/07/15 17:52:59;;;;;;;3.00;2.07;;;21.30;99.90;;;;;;10379564;28;20215;-83
2021/07/15 17:58:01;;;;;;;3.33;2.37;;;21.00;99.90;;;;;;10378208;28;20446;-83
2021/07/15 18:03:04;;;;;;;3.20;2.70;;;20.70;99.90;;;;;;10354969;28;20262;-83
2021/07/15 18:08:08;;;;;;;3.10;2.50;;;20.30;99.90;;;;;;10368583;28;20202;-82
2021/07/15 18:13:10;;;;;;;3.00;2.47;;;20.00;99.90;;;;;;10370118;28;20245;-83
2021/07/15 18:18:14;;;;;;;2.97;2.77;;;19.80;99.90;;;;;;10371521;28;20202;-83
2021/07/15 18:23:17;;;;;;;2.80;2.60;;;19.70;99.90;;;;;;10343307;28;20238;-84
2021/07/15 18:28:19;;;;;;;3.30;2.83;;;19.50;99.90;;;;;;10378506;28;20214;-83
2021/07/15 18:33:21;;;;;;;3.47;3.17;;;19.40;99.90;;;;;;10353757;28;20675;-82
2021/07/15 18:38:25;;;;;;;3.27;2.97;;;19.30;99.90;;;;;;10374738;28;20195;-83
2021/07/15 18:43:27;;;;;;;3.33;3.13;;;19.20;99.90;;;;;;10340977;28;20254;-82
2021/07/15 18:48:29;;;;;;;4.00;3.73;;;19.20;99.90;;;;;;10356481;28;20610;-83
2021/07/15 18:53:34;;;;;;;3.27;3.00;;;19.10;99.90;;;;;;10341476;28;20226;-82
2021/07/15 18:58:36;;;;;;;3.30;3.00;;;19.00;99.90;;;;;;10339448;28;20199;-82
2021/07/15 19:03:38;;;;;;;4.20;3.80;;;19.00;99.90;;;;;;10355441;28;20240;-82
2021/07/15 19:08:41;;;;;;;4.33;3.60;;;18.90;99.90;;;;;;10373534;28;20224;-82
2021/07/15 19:13:43;;;;;;;3.30;3.00;;;18.90;99.90;;;;;;10339525;28;20203;-82
2021/07/15 19:18:45;;;;;;;4.60;2.93;;;18.90;99.90;;;;;;10356383;28;20529;-82
2021/07/15 19:23:49;;;;;;;3.13;2.93;;;18.90;99.90;;;;;;10355531;28;20218;-83
2021/07/15 19:28:51;;;;;;;3.40;2.40;;;19.00;99.90;;;;;;10341276;28;20210;-83
2021/07/15 19:33:54;;;;;;;5.43;3.77;;;19.00;99.90;;;;;;10324952;28;20686;-83
2021/07/15 19:38:58;;;;;;;2.90;2.80;;;19.00;99.90;;;;;;10325237;28;20210;-82
2021/07/15 19:44:01;;;;;;;3.47;3.10;;;19.00;99.90;;;;;;10325746;28;20293;-83
2021/07/15 19:49:03;;;;;;;2.73;2.53;;;19.00;99.90;;;;;;10325598;28;20230;-83
2021/07/15 19:54:07;;;;;;;3.40;3.10;;;19.00;99.90;;;;;;10325475;28;20200;-83
2021/07/15 19:59:09;;;;;;;3.30;3.10;;;19.00;99.90;;;;;;10315337;28;20237;-84
2021/07/15 20:04:11;;;;;;;2.70;2.37;;;19.00;99.90;;;;;;10367364;28;20277;-83
2021/07/15 20:09:15;;;;;;;2.50;2.40;;;18.90;99.90;;;;;;10373775;28;20248;-83
2021/07/15 20:14:17;;;;;;;2.00;1.90;;;18.90;99.90;;;;;;10373878;28;20199;-82
2021/07/15 20:19:23;;;;;;;1.97;1.87;;;18.90;99.90;;;;;;10368288;28;20217;-82
2021/07/15 20:24:26;;;;;;;2.27;1.80;;;18.80;99.90;;;;;;10373917;28;20342;-82
2021/07/15 20:29:32;;;;;;;2.27;2.07;;;18.80;99.90;;;;;;10360234;28;20269;-83
2021/07/15 20:34:34;;;;;;;1.97;1.87;;;18.80;99.90;;;;;;10393986;28;20826;-82
2021/07/15 20:39:38;;;;;;;2.20;2.10;;;18.80;99.90;;;;;;10378525;28;20218;-83
2021/07/15 20:44:40;;;;;;;2.20;2.10;;;18.80;99.90;;;;;;10379609;28;20218;-82
2021/07/15 20:49:42;;;;;;;1.93;1.83;;;18.80;99.90;;;;;;10381345;28;20276;-82
2021/07/15 20:54:46;;;;;;;2.60;2.40;;;18.70;99.90;;;;;;10372399;28;20206;-84
2021/07/15 20:59:48;;;;;;;2.60;2.40;;;18.70;99.90;;;;;;10370811;28;20309;-84
2021/07/15 21:04:50;;;;;;;3.63;2.47;;;18.70;99.90;;;;;;10358093;28;20230;-83
2021/07/15 21:09:54;;;;;;;2.80;2.67;;;18.80;99.90;;;;;;10347186;28;20222;-84
2021/07/15 21:15:03;;;;;;;3.03;2.83;;;18.80;99.90;;;;;;10345883;28;20282;-84
2021/07/15 21:20:28;;;;;;;3.10;2.90;;;18.90;99.90;;;;;;10377206;28;20225;-84
2021/07/15 21:25:34;;;;;;;3.10;2.70;;;18.90;99.90;;;;;;10381725;28;20218;-84
2021/07/15 21:30:48;;;;;;;2.73;2.53;;;18.80;99.90;;;;;;10361871;28;20422;-84
2021/07/15 21:36:10;;;;;;;2.40;2.30;;;18.70;99.90;;;;;;10359997;28;20222;-84
2021/07/15 21:41:18;;;;;;;2.73;2.60;;;18.70;99.90;;;;;;10362338;28;20214;-84
2021/07/15 21:46:22;;;;;;;2.90;2.70;;;18.60;99.90;;;;;;10349203;28;20222;-84
2021/07/15 21:51:28;;;;;;;3.73;3.43;;;18.50;99.90;;;;;;10358192;28;20226;-84
2021/07/15 21:56:32;;;;;;;3.00;2.80;;;18.40;99.90;;;;;;10381353;28;20282;-84
2021/07/15 22:01:37;;;;;;;3.40;2.90;;;18.40;99.90;;;;;;10384542;28;20225;-84
2021/07/15 22:06:40;;;;;;;3.13;2.80;;;18.40;99.90;;;;;;10367273;28;20725;-84
2021/07/15 22:11:44;;;;;;;2.97;2.77;;;18.30;99.90;;;;;;10367448;28;20601;-84
2021/07/15 22:16:53;;;;;;;3.03;2.90;;;18.30;99.90;;;;;;10371007;28;20202;-83
2021/07/15 22:21:59;;;;;;;2.93;2.73;;;18.30;99.90;;;;;;10352627;28;20221;-83
2021/07/15 22:27:08;;;;;;;3.70;3.30;;;18.40;99.90;;;;;;10327249;28;20207;-83
2021/07/15 22:32:19;;;;;;;3.03;2.77;;;18.30;99.90;;;;;;10355109;28;20301;-83
2021/07/15 22:37:29;;;;;;;3.10;2.90;;;18.20;99.90;;;;;;10382063;28;20204;-83
2021/07/15 22:42:39;;;;;;;3.50;3.30;;;18.20;99.90;;;;;;10388001;28;20225;-83
2021/07/15 22:47:58;;;;;;;3.60;3.40;;;18.30;99.90;;;;;;10345755;28;20202;-83
2021/07/15 22:53:06;;;;;;;3.43;3.13;;;18.30;99.90;;;;;;10337914;28;20211;-83
2021/07/15 22:58:10;;;;;;;3.83;3.60;;;18.40;99.90;;;;;;10368374;28;20675;-83
2021/07/15 23:03:15;;;;;;;4.80;3.63;;;18.40;99.90;;;;;;10338751;28;20281;-83
2021/07/15 23:08:20;;;;;;;3.97;3.67;;;18.40;99.90;;;;;;10357366;28;20206;-83
2021/07/15 23:13:28;;;;;;;3.87;3.57;;;18.40;99.90;;;;;;10370430;28;20219;-83
2021/07/15 23:18:33;;;;;;;3.30;3.10;;;18.40;99.90;;;;;;10353773;28;20329;-83
2021/07/15 23:23:38;;;;;;;3.30;3.10;;;18.40;99.90;;;;;;10372369;28;20313;-83
2021/07/15 23:28:43;;;;;;;3.70;3.40;;;18.30;99.90;;;;;;10369573;28;20237;-83
2021/07/15 23:33:53;;;;;;;3.60;3.40;;;18.40;99.90;;;;;;10356458;28;20241;-83
2021/07/15 23:38:55;;;;;;;4.03;3.73;;;18.40;99.90;;;;;;10365586;28;20191;-83
2021/07/15 23:44:01;;;;;;;3.80;3.60;;;18.20;99.90;;;;;;10366305;28;20218;-83
2021/07/15 23:49:07;;;;;;;3.60;3.30;;;18.20;99.90;;;;;;10363242;28;20225;-83
2021/07/15 23:54:11;;;;;;;3.40;3.10;;;18.10;99.90;;;;;;10367456;28;20248;-83
2021/07/15 23:59:17;;;;;;;4.80;3.83;;;18.00;99.90;;;;;;10397112;22;20234;-80
